sensor_id;sensor_type;location;lat;lon;timestamp;P1;durP1;ratioP1;P2;durP2;ratioP2
18228;SDS011;9239;50.932;3.142;2022-08-03T00:01:31;3.53;;;1.88;;
18228;SDS011;9239;50.932;3.142;2022-08-03T00:03:59;4.43;;;2.13;;
18228;SDS011;9239;50.932;3.142;2022-08-03T00:06:27;4.40;;;2.03;;
18228;SDS011;9239;50.932;3.142;2022-08-03T00:08:53;6.15;;;2.58;;
18228;SDS011;9239;50.932;3.142;2022-08-03T00:11:20;3.33;;;2.10;;
18228;SDS011;9239;50.932;3.142;2022-08-03T00:13:47;5.57;;;2.42;;
18228;SDS011;9239;50.932;3.142;2022-08-03T00:16:15;4.07;;;2.08;;
18228;SDS011;9239;50.932;3.142;2022-08-03T00:18:42;6.75;;;2.08;;
18228;SDS011;9239;50.932;3.142;2022-08-03T00:21:10;4.75;;;2.25;;
18228;SDS011;9239;50.932;3.142;2022-08-03T00:23:37;3.90;;;2.00;;
18228;SDS011;9239;50.932;3.142;2022-08-03T00:26:04;5.32;;;2.22;;
18228;SDS011;9239;50.932;3.142;2022-08-03T00:28:31;4.80;;;2.30;;
18228;SDS011;9239;50.932;3.142;2022-08-03T00:30:58;5.00;;;2.33;;
18228;SDS011;9239;50.932;3.142;2022-08-03T00:33:24;3.60;;;2.17;;
18228;SDS011;9239;50.932;3.142;2022-08-03T00:35:51;4.30;;;2.00;;
18228;SDS011;9239;50.932;3.142;2022-08-03T00:38:19;4.88;;;2.13;;
18228;SDS011;9239;50.932;3.142;2022-08-03T00:40:46;4.38;;;2.15;;
18228;SDS011;9239;50.932;3.142;2022-08-03T00:43:13;3.38;;;2.00;;
18228;SDS011;9239;50.932;3.142;2022-08-03T00:45:41;5.95;;;2.70;;
18228;SDS011;9239;50.932;3.142;2022-08-03T00:48:08;6.07;;;2.65;;
18228;SDS011;9239;50.932;3.142;2022-08-03T00:50:38;3.75;;;2.58;;
18228;SDS011;9239;50.932;3.142;2022-08-03T00:53:08;3.72;;;2.15;;
18228;SDS011;9239;50.932;3.142;2022-08-03T00:55:38;5.75;;;2.55;;
18228;SDS011;9239;50.932;3.142;2022-08-03T00:58:06;7.10;;;2.13;;
18228;SDS011;9239;50.932;3.142;2022-08-03T01:00:35;5.57;;;2.13;;
18228;SDS011;9239;50.932;3.142;2022-08-03T01:03:04;4.30;;;1.98;;
18228;SDS011;9239;50.932;3.142;2022-08-03T01:05:32;7.38;;;2.42;;
18228;SDS011;9239;50.932;3.142;2022-08-03T01:08:07;2.88;;;1.90;;
18228;SDS011;9239;50.932;3.142;2022-08-03T01:10:44;4.95;;;2.22;;
18228;SDS011;9239;50.932;3.142;2022-08-03T01:13:20;3.55;;;2.17;;
18228;SDS011;9239;50.932;3.142;2022-08-03T01:15:53;5.50;;;2.17;;
18228;SDS011;9239;50.932;3.142;2022-08-03T01:18:25;4.10;;;2.28;;
18228;SDS011;9239;50.932;3.142;2022-08-03T01:20:56;2.72;;;2.33;;
18228;SDS011;9239;50.932;3.142;2022-08-03T01:23:34;3.88;;;2.15;;
18228;SDS011;9239;50.932;3.142;2022-08-03T01:26:17;5.60;;;2.20;;
18228;SDS011;9239;50.932;3.142;2022-08-03T01:29:03;6.38;;;2.28;;
18228;SDS011;9239;50.932;3.142;2022-08-03T01:31:47;1.90;;;1.65;;
18228;SDS011;9239;50.932;3.142;2022-08-03T01:34:18;5.43;;;2.67;;
18228;SDS011;9239;50.932;3.142;2022-08-03T01:36:48;4.72;;;1.92;;
18228;SDS011;9239;50.932;3.142;2022-08-03T01:39:19;5.00;;;2.55;;
18228;SDS011;9239;50.932;3.142;2022-08-03T01:41:48;4.82;;;2.38;;
18228;SDS011;9239;50.932;3.142;2022-08-03T01:44:23;3.70;;;2.42;;
18228;SDS011;9239;50.932;3.142;2022-08-03T01:46:55;6.55;;;2.40;;
18228;SDS011;9239;50.932;3.142;2022-08-03T01:49:24;4.63;;;2.20;;
18228;SDS011;9239;50.932;3.142;2022-08-03T01:51:53;5.10;;;2.60;;
18228;SDS011;9239;50.932;3.142;2022-08-03T01:54:21;4.22;;;2.30;;
18228;SDS011;9239;50.932;3.142;2022-08-03T01:56:50;5.20;;;2.10;;
18228;SDS011;9239;50.932;3.142;2022-08-03T01:59:18;5.43;;;2.53;;
18228;SDS011;9239;50.932;3.142;2022-08-03T02:01:47;5.07;;;2.25;;
18228;SDS011;9239;50.932;3.142;2022-08-03T02:04:17;6.80;;;2.40;;
18228;SDS011;9239;50.932;3.142;2022-08-03T02:06:45;6.05;;;2.45;;
18228;SDS011;9239;50.932;3.142;2022-08-03T02:09:13;4.57;;;2.28;;
18228;SDS011;9239;50.932;3.142;2022-08-03T02:11:40;5.18;;;2.50;;
18228;SDS011;9239;50.932;3.142;2022-08-03T02:14:09;9.57;;;2.67;;
18228;SDS011;9239;50.932;3.142;2022-08-03T02:16:37;6.03;;;2.63;;
18228;SDS011;9239;50.932;3.142;2022-08-03T02:19:04;5.85;;;2.78;;
18228;SDS011;9239;50.932;3.142;2022-08-03T02:21:34;4.43;;;2.22;;
18228;SDS011;9239;50.932;3.142;2022-08-03T02:24:03;5.85;;;2.67;;
18228;SDS011;9239;50.932;3.142;2022-08-03T02:26:31;3.97;;;2.20;;
18228;SDS011;9239;50.932;3.142;2022-08-03T02:29:01;4.50;;;2.03;;
18228;SDS011;9239;50.932;3.142;2022-08-03T02:31:32;5.95;;;2.35;;
18228;SDS011;9239;50.932;3.142;2022-08-03T02:34:03;7.13;;;2.70;;
18228;SDS011;9239;50.932;3.142;2022-08-03T02:36:36;5.57;;;2.33;;
18228;SDS011;9239;50.932;3.142;2022-08-03T02:39:06;3.65;;;2.47;;
18228;SDS011;9239;50.932;3.142;2022-08-03T02:41:37;5.03;;;2.85;;
18228;SDS011;9239;50.932;3.142;2022-08-03T02:44:08;4.57;;;2.35;;
18228;SDS011;9239;50.932;3.142;2022-08-03T02:46:37;5.10;;;2.63;;
18228;SDS011;9239;50.932;3.142;2022-08-03T02:49:08;6.93;;;2.53;;
18228;SDS011;9239;50.932;3.142;2022-08-03T02:51:38;6.40;;;2.30;;
18228;SDS011;9239;50.932;3.142;2022-08-03T02:54:06;4.25;;;2.40;;
18228;SDS011;9239;50.932;3.142;2022-08-03T02:56:35;4.53;;;2.58;;
18228;SDS011;9239;50.932;3.142;2022-08-03T02:59:04;8.70;;;2.55;;
18228;SDS011;9239;50.932;3.142;2022-08-03T03:01:32;6.07;;;2.70;;
18228;SDS011;9239;50.932;3.142;2022-08-03T03:03:59;5.82;;;2.80;;
18228;SDS011;9239;50.932;3.142;2022-08-03T03:06:27;4.05;;;2.40;;
18228;SDS011;9239;50.932;3.142;2022-08-03T03:08:56;5.80;;;2.80;;
18228;SDS011;9239;50.932;3.142;2022-08-03T03:11:25;4.65;;;2.58;;
18228;SDS011;9239;50.932;3.142;2022-08-03T03:13:52;4.22;;;2.08;;
18228;SDS011;9239;50.932;3.142;2022-08-03T03:16:21;7.22;;;2.65;;
18228;SDS011;9239;50.932;3.142;2022-08-03T03:18:50;5.65;;;2.95;;
18228;SDS011;9239;50.932;3.142;2022-08-03T03:21:19;6.28;;;2.88;;
18228;SDS011;9239;50.932;3.142;2022-08-03T03:23:48;5.78;;;2.65;;
18228;SDS011;9239;50.932;3.142;2022-08-03T03:26:17;9.35;;;3.28;;
18228;SDS011;9239;50.932;3.142;2022-08-03T03:28:45;4.82;;;2.80;;
18228;SDS011;9239;50.932;3.142;2022-08-03T03:31:12;3.72;;;2.60;;
18228;SDS011;9239;50.932;3.142;2022-08-03T03:33:39;4.13;;;2.33;;
18228;SDS011;9239;50.932;3.142;2022-08-03T03:36:06;5.13;;;2.67;;
18228;SDS011;9239;50.932;3.142;2022-08-03T03:38:33;4.93;;;2.55;;
18228;SDS011;9239;50.932;3.142;2022-08-03T03:41:00;8.48;;;2.97;;
18228;SDS011;9239;50.932;3.142;2022-08-03T03:43:29;8.05;;;3.00;;
18228;SDS011;9239;50.932;3.142;2022-08-03T03:45:57;4.07;;;2.85;;
18228;SDS011;9239;50.932;3.142;2022-08-03T03:48:24;4.70;;;2.85;;
18228;SDS011;9239;50.932;3.142;2022-08-03T03:50:51;6.82;;;3.80;;
18228;SDS011;9239;50.932;3.142;2022-08-03T03:53:18;6.93;;;2.88;;
18228;SDS011;9239;50.932;3.142;2022-08-03T03:55:46;7.40;;;2.92;;
18228;SDS011;9239;50.932;3.142;2022-08-03T03:58:13;7.03;;;3.13;;
18228;SDS011;9239;50.932;3.142;2022-08-03T04:00:41;6.07;;;3.55;;
18228;SDS011;9239;50.932;3.142;2022-08-03T04:03:09;5.45;;;3.17;;
18228;SDS011;9239;50.932;3.142;2022-08-03T04:05:36;10.07;;;3.10;;
18228;SDS011;9239;50.932;3.142;2022-08-03T04:08:21;5.90;;;2.75;;
18228;SDS011;9239;50.932;3.142;2022-08-03T04:11:08;4.43;;;3.10;;
18228;SDS011;9239;50.932;3.142;2022-08-03T04:13:40;6.43;;;2.95;;
18228;SDS011;9239;50.932;3.142;2022-08-03T04:16:13;5.55;;;3.03;;
18228;SDS011;9239;50.932;3.142;2022-08-03T04:18:43;4.65;;;2.78;;
18228;SDS011;9239;50.932;3.142;2022-08-03T04:21:14;4.18;;;2.97;;
18228;SDS011;9239;50.932;3.142;2022-08-03T04:23:45;7.07;;;3.10;;
18228;SDS011;9239;50.932;3.142;2022-08-03T04:26:15;3.22;;;2.60;;
18228;SDS011;9239;50.932;3.142;2022-08-03T04:28:46;4.97;;;2.95;;
18228;SDS011;9239;50.932;3.142;2022-08-03T04:31:17;3.95;;;2.70;;
18228;SDS011;9239;50.932;3.142;2022-08-03T04:33:47;7.88;;;2.75;;
18228;SDS011;9239;50.932;3.142;2022-08-03T04:36:16;4.45;;;2.72;;
18228;SDS011;9239;50.932;3.142;2022-08-03T04:38:52;6.28;;;2.65;;
18228;SDS011;9239;50.932;3.142;2022-08-03T04:41:21;7.75;;;3.00;;
18228;SDS011;9239;50.932;3.142;2022-08-03T04:43:52;4.35;;;2.80;;
18228;SDS011;9239;50.932;3.142;2022-08-03T04:46:23;6.28;;;2.92;;
18228;SDS011;9239;50.932;3.142;2022-08-03T04:48:52;5.70;;;3.00;;
18228;SDS011;9239;50.932;3.142;2022-08-03T04:51:19;4.05;;;3.00;;
18228;SDS011;9239;50.932;3.142;2022-08-03T04:53:46;4.68;;;2.70;;
18228;SDS011;9239;50.932;3.142;2022-08-03T04:56:13;5.63;;;3.25;;
18228;SDS011;9239;50.932;3.142;2022-08-03T04:58:40;10.38;;;3.20;;
18228;SDS011;9239;50.932;3.142;2022-08-03T05:01:07;5.25;;;3.50;;
18228;SDS011;9239;50.932;3.142;2022-08-03T05:03:35;6.05;;;3.00;;
18228;SDS011;9239;50.932;3.142;2022-08-03T05:06:02;4.72;;;2.80;;
18228;SDS011;9239;50.932;3.142;2022-08-03T05:08:30;6.72;;;3.28;;
18228;SDS011;9239;50.932;3.142;2022-08-03T05:10:57;7.82;;;3.05;;
18228;SDS011;9239;50.932;3.142;2022-08-03T05:13:23;5.47;;;2.78;;
18228;SDS011;9239;50.932;3.142;2022-08-03T05:15:50;6.00;;;3.17;;
18228;SDS011;9239;50.932;3.142;2022-08-03T05:18:17;10.65;;;3.33;;
18228;SDS011;9239;50.932;3.142;2022-08-03T05:20:45;6.13;;;2.88;;
18228;SDS011;9239;50.932;3.142;2022-08-03T05:23:12;6.35;;;2.70;;
18228;SDS011;9239;50.932;3.142;2022-08-03T05:25:39;7.78;;;3.60;;
18228;SDS011;9239;50.932;3.142;2022-08-03T05:28:06;7.30;;;3.15;;
18228;SDS011;9239;50.932;3.142;2022-08-03T05:30:33;4.97;;;2.97;;
18228;SDS011;9239;50.932;3.142;2022-08-03T05:33:00;6.95;;;3.05;;
18228;SDS011;9239;50.932;3.142;2022-08-03T05:35:28;6.13;;;3.05;;
18228;SDS011;9239;50.932;3.142;2022-08-03T05:37:57;5.03;;;3.00;;
18228;SDS011;9239;50.932;3.142;2022-08-03T05:40:24;7.68;;;3.45;;
18228;SDS011;9239;50.932;3.142;2022-08-03T05:42:50;6.47;;;3.95;;
18228;SDS011;9239;50.932;3.142;2022-08-03T05:45:17;5.82;;;3.45;;
18228;SDS011;9239;50.932;3.142;2022-08-03T05:47:44;5.80;;;2.95;;
18228;SDS011;9239;50.932;3.142;2022-08-03T05:50:12;8.05;;;3.58;;
18228;SDS011;9239;50.932;3.142;2022-08-03T05:52:39;4.97;;;3.15;;
18228;SDS011;9239;50.932;3.142;2022-08-03T05:55:09;5.85;;;2.75;;
18228;SDS011;9239;50.932;3.142;2022-08-03T05:57:37;6.13;;;3.00;;
18228;SDS011;9239;50.932;3.142;2022-08-03T06:00:06;6.63;;;3.20;;
18228;SDS011;9239;50.932;3.142;2022-08-03T06:02:34;5.10;;;2.95;;
18228;SDS011;9239;50.932;3.142;2022-08-03T06:05:01;6.25;;;3.35;;
18228;SDS011;9239;50.932;3.142;2022-08-03T06:07:28;6.95;;;2.72;;
18228;SDS011;9239;50.932;3.142;2022-08-03T06:09:55;5.53;;;2.88;;
18228;SDS011;9239;50.932;3.142;2022-08-03T06:12:24;4.43;;;2.88;;
18228;SDS011;9239;50.932;3.142;2022-08-03T06:14:50;7.40;;;3.20;;
18228;SDS011;9239;50.932;3.142;2022-08-03T06:17:17;6.57;;;3.33;;
18228;SDS011;9239;50.932;3.142;2022-08-03T06:19:44;7.10;;;3.00;;
18228;SDS011;9239;50.932;3.142;2022-08-03T06:22:11;8.80;;;3.33;;
18228;SDS011;9239;50.932;3.142;2022-08-03T06:24:38;8.27;;;3.35;;
18228;SDS011;9239;50.932;3.142;2022-08-03T06:27:05;8.18;;;2.83;;
18228;SDS011;9239;50.932;3.142;2022-08-03T06:29:34;6.15;;;2.78;;
18228;SDS011;9239;50.932;3.142;2022-08-03T06:32:00;10.32;;;3.85;;
18228;SDS011;9239;50.932;3.142;2022-08-03T06:34:27;8.65;;;2.95;;
18228;SDS011;9239;50.932;3.142;2022-08-03T06:36:54;9.98;;;2.88;;
18228;SDS011;9239;50.932;3.142;2022-08-03T06:39:21;8.35;;;2.45;;
18228;SDS011;9239;50.932;3.142;2022-08-03T06:41:48;7.93;;;2.28;;
18228;SDS011;9239;50.932;3.142;2022-08-03T06:44:15;7.97;;;2.38;;
18228;SDS011;9239;50.932;3.142;2022-08-03T06:46:43;8.43;;;2.55;;
18228;SDS011;9239;50.932;3.142;2022-08-03T06:49:11;8.73;;;2.50;;
18228;SDS011;9239;50.932;3.142;2022-08-03T06:51:38;8.30;;;3.25;;
18228;SDS011;9239;50.932;3.142;2022-08-03T06:54:05;7.32;;;3.30;;
18228;SDS011;9239;50.932;3.142;2022-08-03T06:56:32;7.47;;;2.63;;
18228;SDS011;9239;50.932;3.142;2022-08-03T06:58:59;5.90;;;2.47;;
18228;SDS011;9239;50.932;3.142;2022-08-03T07:01:26;11.60;;;3.03;;
18228;SDS011;9239;50.932;3.142;2022-08-03T07:03:54;9.32;;;2.28;;
18228;SDS011;9239;50.932;3.142;2022-08-03T07:06:21;6.60;;;2.65;;
18228;SDS011;9239;50.932;3.142;2022-08-03T07:08:48;7.95;;;2.72;;
18228;SDS011;9239;50.932;3.142;2022-08-03T07:11:15;8.95;;;2.53;;
18228;SDS011;9239;50.932;3.142;2022-08-03T07:13:42;8.52;;;3.00;;
18228;SDS011;9239;50.932;3.142;2022-08-03T07:16:09;9.50;;;2.63;;
18228;SDS011;9239;50.932;3.142;2022-08-03T07:18:36;7.85;;;3.20;;
18228;SDS011;9239;50.932;3.142;2022-08-03T07:21:05;9.77;;;2.70;;
18228;SDS011;9239;50.932;3.142;2022-08-03T07:23:33;7.30;;;2.55;;
18228;SDS011;9239;50.932;3.142;2022-08-03T07:26:00;9.77;;;2.88;;
18228;SDS011;9239;50.932;3.142;2022-08-03T07:28:27;11.20;;;3.08;;
18228;SDS011;9239;50.932;3.142;2022-08-03T07:30:54;5.53;;;2.25;;
18228;SDS011;9239;50.932;3.142;2022-08-03T07:33:21;8.75;;;3.00;;
18228;SDS011;9239;50.932;3.142;2022-08-03T07:35:48;8.30;;;2.80;;
18228;SDS011;9239;50.932;3.142;2022-08-03T07:38:16;9.93;;;2.80;;
18228;SDS011;9239;50.932;3.142;2022-08-03T07:40:43;8.20;;;2.78;;
18228;SDS011;9239;50.932;3.142;2022-08-03T07:43:10;8.10;;;2.97;;
18228;SDS011;9239;50.932;3.142;2022-08-03T07:45:37;12.05;;;2.67;;
18228;SDS011;9239;50.932;3.142;2022-08-03T07:48:03;18.20;;;4.40;;
18228;SDS011;9239;50.932;3.142;2022-08-03T07:50:31;13.02;;;3.83;;
18228;SDS011;9239;50.932;3.142;2022-08-03T07:52:58;8.68;;;2.83;;
18228;SDS011;9239;50.932;3.142;2022-08-03T07:55:26;7.57;;;2.55;;
18228;SDS011;9239;50.932;3.142;2022-08-03T07:58:01;8.65;;;2.20;;
18228;SDS011;9239;50.932;3.142;2022-08-03T08:00:29;10.13;;;3.13;;
18228;SDS011;9239;50.932;3.142;2022-08-03T08:02:56;9.10;;;2.28;;
18228;SDS011;9239;50.932;3.142;2022-08-03T08:05:23;9.38;;;2.40;;
18228;SDS011;9239;50.932;3.142;2022-08-03T08:07:50;7.82;;;2.65;;
18228;SDS011;9239;50.932;3.142;2022-08-03T08:10:17;9.25;;;2.58;;
18228;SDS011;9239;50.932;3.142;2022-08-03T08:12:46;7.43;;;2.70;;
18228;SDS011;9239;50.932;3.142;2022-08-03T08:15:13;10.20;;;3.30;;
18228;SDS011;9239;50.932;3.142;2022-08-03T08:17:41;5.47;;;2.50;;
18228;SDS011;9239;50.932;3.142;2022-08-03T08:20:10;6.00;;;2.20;;
18228;SDS011;9239;50.932;3.142;2022-08-03T08:22:40;9.57;;;2.50;;
18228;SDS011;9239;50.932;3.142;2022-08-03T08:25:07;11.52;;;2.70;;
18228;SDS011;9239;50.932;3.142;2022-08-03T08:27:39;5.50;;;2.10;;
18228;SDS011;9239;50.932;3.142;2022-08-03T08:30:09;7.15;;;2.13;;
18228;SDS011;9239;50.932;3.142;2022-08-03T08:32:37;7.60;;;2.25;;
18228;SDS011;9239;50.932;3.142;2022-08-03T08:35:05;8.23;;;2.35;;
18228;SDS011;9239;50.932;3.142;2022-08-03T08:37:33;7.57;;;2.28;;
18228;SDS011;9239;50.932;3.142;2022-08-03T08:40:00;10.60;;;3.33;;
18228;SDS011;9239;50.932;3.142;2022-08-03T08:42:27;8.40;;;2.47;;
18228;SDS011;9239;50.932;3.142;2022-08-03T08:44:54;8.73;;;2.55;;
18228;SDS011;9239;50.932;3.142;2022-08-03T08:47:23;5.28;;;2.60;;
18228;SDS011;9239;50.932;3.142;2022-08-03T08:49:53;5.57;;;1.90;;
18228;SDS011;9239;50.932;3.142;2022-08-03T08:52:21;8.07;;;2.42;;
18228;SDS011;9239;50.932;3.142;2022-08-03T08:54:50;6.82;;;2.13;;
18228;SDS011;9239;50.932;3.142;2022-08-03T08:57:20;9.82;;;2.65;;
18228;SDS011;9239;50.932;3.142;2022-08-03T08:59:50;5.95;;;2.35;;
18228;SDS011;9239;50.932;3.142;2022-08-03T09:02:21;10.45;;;2.78;;
18228;SDS011;9239;50.932;3.142;2022-08-03T09:04:49;7.53;;;2.22;;
18228;SDS011;9239;50.932;3.142;2022-08-03T09:07:16;6.88;;;2.30;;
18228;SDS011;9239;50.932;3.142;2022-08-03T09:09:44;6.68;;;2.50;;
18228;SDS011;9239;50.932;3.142;2022-08-03T09:12:11;6.28;;;2.00;;
18228;SDS011;9239;50.932;3.142;2022-08-03T09:14:38;8.63;;;2.60;;
18228;SDS011;9239;50.932;3.142;2022-08-03T09:17:05;7.63;;;1.90;;
18228;SDS011;9239;50.932;3.142;2022-08-03T09:19:33;6.18;;;2.33;;
18228;SDS011;9239;50.932;3.142;2022-08-03T09:22:09;8.65;;;2.10;;
18228;SDS011;9239;50.932;3.142;2022-08-03T09:24:37;4.00;;;1.77;;
18228;SDS011;9239;50.932;3.142;2022-08-03T09:27:20;6.55;;;1.95;;
18228;SDS011;9239;50.932;3.142;2022-08-03T09:29:47;4.03;;;1.83;;
18228;SDS011;9239;50.932;3.142;2022-08-03T09:32:14;5.22;;;1.65;;
18228;SDS011;9239;50.932;3.142;2022-08-03T09:34:45;4.60;;;2.08;;
18228;SDS011;9239;50.932;3.142;2022-08-03T09:37:15;8.07;;;2.22;;
18228;SDS011;9239;50.932;3.142;2022-08-03T09:39:44;6.88;;;2.00;;
18228;SDS011;9239;50.932;3.142;2022-08-03T09:42:13;6.13;;;2.03;;
18228;SDS011;9239;50.932;3.142;2022-08-03T09:44:42;5.28;;;1.98;;
18228;SDS011;9239;50.932;3.142;2022-08-03T09:47:10;8.48;;;2.17;;
18228;SDS011;9239;50.932;3.142;2022-08-03T09:49:38;6.72;;;1.85;;
18228;SDS011;9239;50.932;3.142;2022-08-03T09:52:13;8.25;;;2.08;;
18228;SDS011;9239;50.932;3.142;2022-08-03T09:54:49;8.70;;;1.98;;
18228;SDS011;9239;50.932;3.142;2022-08-03T09:57:20;7.82;;;2.05;;
18228;SDS011;9239;50.932;3.142;2022-08-03T09:59:48;4.45;;;1.80;;
18228;SDS011;9239;50.932;3.142;2022-08-03T10:02:22;4.13;;;2.00;;
18228;SDS011;9239;50.932;3.142;2022-08-03T10:04:53;6.50;;;2.25;;
18228;SDS011;9239;50.932;3.142;2022-08-03T10:07:22;7.72;;;2.10;;
18228;SDS011;9239;50.932;3.142;2022-08-03T10:09:54;6.80;;;2.30;;
18228;SDS011;9239;50.932;3.142;2022-08-03T10:12:22;6.72;;;1.95;;
18228;SDS011;9239;50.932;3.142;2022-08-03T10:14:50;5.50;;;2.20;;
18228;SDS011;9239;50.932;3.142;2022-08-03T10:17:17;5.78;;;1.60;;
18228;SDS011;9239;50.932;3.142;2022-08-03T10:19:44;6.88;;;1.73;;
18228;SDS011;9239;50.932;3.142;2022-08-03T10:22:12;3.78;;;1.50;;
18228;SDS011;9239;50.932;3.142;2022-08-03T10:24:45;4.50;;;1.95;;
18228;SDS011;9239;50.932;3.142;2022-08-03T10:27:17;2.28;;;1.40;;
18228;SDS011;9239;50.932;3.142;2022-08-03T10:29:46;3.95;;;1.50;;
18228;SDS011;9239;50.932;3.142;2022-08-03T10:32:18;2.63;;;1.20;;
18228;SDS011;9239;50.932;3.142;2022-08-03T10:34:50;4.78;;;1.42;;
18228;SDS011;9239;50.932;3.142;2022-08-03T10:37:20;7.65;;;2.35;;
18228;SDS011;9239;50.932;3.142;2022-08-03T10:39:51;3.22;;;1.52;;
18228;SDS011;9239;50.932;3.142;2022-08-03T10:42:20;3.10;;;1.45;;
18228;SDS011;9239;50.932;3.142;2022-08-03T10:44:48;6.65;;;2.05;;
18228;SDS011;9239;50.932;3.142;2022-08-03T10:47:18;6.75;;;1.83;;
18228;SDS011;9239;50.932;3.142;2022-08-03T10:49:46;5.75;;;1.73;;
18228;SDS011;9239;50.932;3.142;2022-08-03T10:52:14;2.05;;;1.38;;
18228;SDS011;9239;50.932;3.142;2022-08-03T10:54:42;5.80;;;1.70;;
18228;SDS011;9239;50.932;3.142;2022-08-03T10:57:45;3.47;;;1.48;;
18228;SDS011;9239;50.932;3.142;2022-08-03T11:00:13;3.95;;;1.50;;
18228;SDS011;9239;50.932;3.142;2022-08-03T11:05:43;3.05;;;1.40;;
18228;SDS011;9239;50.932;3.142;2022-08-03T11:08:24;4.00;;;1.40;;
18228;SDS011;9239;50.932;3.142;2022-08-03T11:10:56;4.03;;;1.35;;
18228;SDS011;9239;50.932;3.142;2022-08-03T11:13:27;3.28;;;1.45;;
18228;SDS011;9239;50.932;3.142;2022-08-03T11:15:56;3.35;;;1.48;;
18228;SDS011;9239;50.932;3.142;2022-08-03T11:18:24;2.67;;;1.30;;
18228;SDS011;9239;50.932;3.142;2022-08-03T11:20:52;6.25;;;1.77;;
18228;SDS011;9239;50.932;3.142;2022-08-03T11:23:40;3.90;;;1.40;;
18228;SDS011;9239;50.932;3.142;2022-08-03T11:26:11;5.72;;;2.40;;
18228;SDS011;9239;50.932;3.142;2022-08-03T11:28:41;3.45;;;1.30;;
18228;SDS011;9239;50.932;3.142;2022-08-03T11:34:14;3.42;;;1.50;;
18228;SDS011;9239;50.932;3.142;2022-08-03T11:39:49;2.80;;;1.23;;
18228;SDS011;9239;50.932;3.142;2022-08-03T11:42:37;3.53;;;1.42;;
18228;SDS011;9239;50.932;3.142;2022-08-03T11:45:11;3.20;;;1.83;;
18228;SDS011;9239;50.932;3.142;2022-08-03T11:47:39;2.50;;;1.35;;
18228;SDS011;9239;50.932;3.142;2022-08-03T11:50:07;4.63;;;1.75;;
18228;SDS011;9239;50.932;3.142;2022-08-03T11:52:38;4.15;;;1.70;;
18228;SDS011;9239;50.932;3.142;2022-08-03T11:55:13;4.43;;;1.77;;
18228;SDS011;9239;50.932;3.142;2022-08-03T11:57:43;6.22;;;1.70;;
18228;SDS011;9239;50.932;3.142;2022-08-03T12:00:25;5.07;;;1.48;;
18228;SDS011;9239;50.932;3.142;2022-08-03T12:02:58;4.65;;;1.80;;
18228;SDS011;9239;50.932;3.142;2022-08-03T12:05:34;3.42;;;1.73;;
18228;SDS011;9239;50.932;3.142;2022-08-03T12:08:06;3.05;;;1.50;;
18228;SDS011;9239;50.932;3.142;2022-08-03T12:10:33;5.03;;;1.60;;
18228;SDS011;9239;50.932;3.142;2022-08-03T12:13:01;5.60;;;1.63;;
18228;SDS011;9239;50.932;3.142;2022-08-03T12:15:35;3.97;;;1.85;;
18228;SDS011;9239;50.932;3.142;2022-08-03T12:18:11;5.80;;;1.70;;
18228;SDS011;9239;50.932;3.142;2022-08-03T12:20:40;5.13;;;1.65;;
18228;SDS011;9239;50.932;3.142;2022-08-03T12:23:08;4.75;;;1.95;;
18228;SDS011;9239;50.932;3.142;2022-08-03T12:25:36;4.47;;;1.75;;
18228;SDS011;9239;50.932;3.142;2022-08-03T12:28:07;5.50;;;1.70;;
18228;SDS011;9239;50.932;3.142;2022-08-03T12:30:38;3.67;;;1.50;;
18228;SDS011;9239;50.932;3.142;2022-08-03T12:33:15;2.70;;;1.55;;
18228;SDS011;9239;50.932;3.142;2022-08-03T12:35:45;3.65;;;1.73;;
18228;SDS011;9239;50.932;3.142;2022-08-03T12:38:17;3.60;;;1.40;;
18228;SDS011;9239;50.932;3.142;2022-08-03T12:40:54;3.80;;;1.77;;
18228;SDS011;9239;50.932;3.142;2022-08-03T12:43:22;3.15;;;1.40;;
18228;SDS011;9239;50.932;3.142;2022-08-03T12:45:51;6.25;;;1.95;;
18228;SDS011;9239;50.932;3.142;2022-08-03T12:48:32;3.15;;;1.42;;
18228;SDS011;9239;50.932;3.142;2022-08-03T12:51:06;2.95;;;1.48;;
18228;SDS011;9239;50.932;3.142;2022-08-03T12:53:34;3.72;;;1.45;;
18228;SDS011;9239;50.932;3.142;2022-08-03T12:56:02;3.83;;;1.48;;
18228;SDS011;9239;50.932;3.142;2022-08-03T12:58:30;3.70;;;1.65;;
18228;SDS011;9239;50.932;3.142;2022-08-03T13:01:02;2.33;;;1.38;;
18228;SDS011;9239;50.932;3.142;2022-08-03T13:03:37;2.58;;;1.45;;
18228;SDS011;9239;50.932;3.142;2022-08-03T13:06:09;3.85;;;1.52;;
18228;SDS011;9239;50.932;3.142;2022-08-03T13:08:37;3.35;;;1.45;;
18228;SDS011;9239;50.932;3.142;2022-08-03T13:11:16;4.38;;;1.40;;
18228;SDS011;9239;50.932;3.142;2022-08-03T13:13:44;3.33;;;1.50;;
18228;SDS011;9239;50.932;3.142;2022-08-03T13:16:13;4.05;;;1.42;;
18228;SDS011;9239;50.932;3.142;2022-08-03T13:18:40;4.85;;;1.67;;
18228;SDS011;9239;50.932;3.142;2022-08-03T13:21:08;2.47;;;1.48;;
18228;SDS011;9239;50.932;3.142;2022-08-03T13:23:34;2.05;;;1.02;;
18228;SDS011;9239;50.932;3.142;2022-08-03T13:26:01;3.25;;;1.35;;
18228;SDS011;9239;50.932;3.142;2022-08-03T13:28:28;2.58;;;1.40;;
18228;SDS011;9239;50.932;3.142;2022-08-03T13:30:55;2.25;;;1.25;;
18228;SDS011;9239;50.932;3.142;2022-08-03T13:33:24;4.45;;;1.30;;
18228;SDS011;9239;50.932;3.142;2022-08-03T13:35:54;4.25;;;1.30;;
18228;SDS011;9239;50.932;3.142;2022-08-03T13:38:22;2.78;;;1.40;;
18228;SDS011;9239;50.932;3.142;2022-08-03T13:40:50;4.05;;;1.60;;
18228;SDS011;9239;50.932;3.142;2022-08-03T13:43:18;3.63;;;1.30;;
18228;SDS011;9239;50.932;3.142;2022-08-03T13:45:46;1.92;;;1.40;;
18228;SDS011;9239;50.932;3.142;2022-08-03T13:48:13;4.00;;;1.10;;
18228;SDS011;9239;50.932;3.142;2022-08-03T13:50:41;4.82;;;1.30;;
18228;SDS011;9239;50.932;3.142;2022-08-03T13:53:08;3.75;;;1.00;;
18228;SDS011;9239;50.932;3.142;2022-08-03T13:55:35;5.90;;;1.25;;
18228;SDS011;9239;50.932;3.142;2022-08-03T13:58:02;2.75;;;1.35;;
18228;SDS011;9239;50.932;3.142;2022-08-03T14:00:29;4.40;;;1.83;;
18228;SDS011;9239;50.932;3.142;2022-08-03T14:02:56;3.72;;;1.20;;
18228;SDS011;9239;50.932;3.142;2022-08-03T14:05:23;6.97;;;1.70;;
18228;SDS011;9239;50.932;3.142;2022-08-03T14:07:52;2.00;;;1.05;;
18228;SDS011;9239;50.932;3.142;2022-08-03T14:10:18;5.07;;;1.77;;
18228;SDS011;9239;50.932;3.142;2022-08-03T14:12:45;3.25;;;1.10;;
18228;SDS011;9239;50.932;3.142;2022-08-03T14:15:12;1.85;;;1.20;;
18228;SDS011;9239;50.932;3.142;2022-08-03T14:17:39;4.95;;;1.27;;
18228;SDS011;9239;50.932;3.142;2022-08-03T14:20:06;4.28;;;1.40;;
18228;SDS011;9239;50.932;3.142;2022-08-03T14:22:34;7.13;;;1.23;;
18228;SDS011;9239;50.932;3.142;2022-08-03T14:25:02;2.47;;;1.10;;
18228;SDS011;9239;50.932;3.142;2022-08-03T14:27:30;6.88;;;1.40;;
18228;SDS011;9239;50.932;3.142;2022-08-03T14:29:57;7.68;;;1.55;;
18228;SDS011;9239;50.932;3.142;2022-08-03T14:32:25;4.45;;;1.33;;
18228;SDS011;9239;50.932;3.142;2022-08-03T14:34:52;2.10;;;1.05;;
18228;SDS011;9239;50.932;3.142;2022-08-03T14:37:19;6.53;;;1.02;;
18228;SDS011;9239;50.932;3.142;2022-08-03T14:39:46;2.25;;;1.15;;
18228;SDS011;9239;50.932;3.142;2022-08-03T14:42:14;2.17;;;1.15;;
18228;SDS011;9239;50.932;3.142;2022-08-03T14:44:41;4.05;;;0.95;;
18228;SDS011;9239;50.932;3.142;2022-08-03T14:47:08;3.50;;;1.17;;
18228;SDS011;9239;50.932;3.142;2022-08-03T14:49:35;2.40;;;1.27;;
18228;SDS011;9239;50.932;3.142;2022-08-03T14:52:03;2.10;;;1.08;;
18228;SDS011;9239;50.932;3.142;2022-08-03T14:54:30;4.43;;;1.45;;
18228;SDS011;9239;50.932;3.142;2022-08-03T14:56:57;3.15;;;1.15;;
18228;SDS011;9239;50.932;3.142;2022-08-03T14:59:25;3.35;;;1.00;;
18228;SDS011;9239;50.932;3.142;2022-08-03T15:01:52;1.42;;;1.00;;
18228;SDS011;9239;50.932;3.142;2022-08-03T15:04:19;1.38;;;1.08;;
18228;SDS011;9239;50.932;3.142;2022-08-03T15:06:46;2.92;;;1.13;;
18228;SDS011;9239;50.932;3.142;2022-08-03T15:09:13;4.60;;;1.20;;
18228;SDS011;9239;50.932;3.142;2022-08-03T15:11:40;3.95;;;1.33;;
18228;SDS011;9239;50.932;3.142;2022-08-03T15:14:08;3.35;;;1.00;;
18228;SDS011;9239;50.932;3.142;2022-08-03T15:16:36;1.67;;;0.77;;
18228;SDS011;9239;50.932;3.142;2022-08-03T15:19:03;1.63;;;1.23;;
18228;SDS011;9239;50.932;3.142;2022-08-03T15:21:30;4.93;;;1.77;;